sensor_id;sensor_type;location;lat;lon;timestamp;P1;durP1;ratioP1;P2;durP2;ratioP2
23288;SDS011;11813;50.834;4.280;2022-12-05T00:00:16;56.53;;;26.60;;
23288;SDS011;11813;50.834;4.280;2022-12-05T00:02:42;63.03;;;26.87;;
23288;SDS011;11813;50.834;4.280;2022-12-05T00:05:09;52.53;;;24.40;;
23288;SDS011;11813;50.834;4.280;2022-12-05T00:07:35;57.97;;;27.03;;
23288;SDS011;11813;50.834;4.280;2022-12-05T00:10:02;58.67;;;26.53;;
23288;SDS011;11813;50.834;4.280;2022-12-05T00:12:28;59.93;;;24.67;;
23288;SDS011;11813;50.834;4.280;2022-12-05T00:14:54;56.27;;;26.73;;
23288;SDS011;11813;50.834;4.280;2022-12-05T00:17:19;60.90;;;26.07;;
23288;SDS011;11813;50.834;4.280;2022-12-05T00:19:45;55.10;;;25.90;;
23288;SDS011;11813;50.834;4.280;2022-12-05T00:22:11;60.33;;;25.47;;
23288;SDS011;11813;50.834;4.280;2022-12-05T00:24:37;54.80;;;24.67;;
23288;SDS011;11813;50.834;4.280;2022-12-05T00:27:03;61.07;;;26.07;;
23288;SDS011;11813;50.834;4.280;2022-12-05T00:29:28;60.53;;;26.03;;
23288;SDS011;11813;50.834;4.280;2022-12-05T00:31:54;52.40;;;23.50;;
23288;SDS011;11813;50.834;4.280;2022-12-05T00:34:20;53.90;;;23.57;;
23288;SDS011;11813;50.834;4.280;2022-12-05T00:36:45;48.47;;;22.47;;
23288;SDS011;11813;50.834;4.280;2022-12-05T00:39:11;53.60;;;24.17;;
23288;SDS011;11813;50.834;4.280;2022-12-05T00:41:40;54.43;;;24.30;;
23288;SDS011;11813;50.834;4.280;2022-12-05T00:44:07;51.90;;;22.93;;
23288;SDS011;11813;50.834;4.280;2022-12-05T00:46:35;54.27;;;23.13;;
23288;SDS011;11813;50.834;4.280;2022-12-05T00:49:02;51.13;;;22.50;;
23288;SDS011;11813;50.834;4.280;2022-12-05T00:51:37;44.77;;;20.60;;
23288;SDS011;11813;50.834;4.280;2022-12-05T00:54:05;49.33;;;22.00;;
23288;SDS011;11813;50.834;4.280;2022-12-05T00:56:33;51.13;;;21.93;;
23288;SDS011;11813;50.834;4.280;2022-12-05T00:59:00;47.53;;;22.90;;
23288;SDS011;11813;50.834;4.280;2022-12-05T01:01:29;47.20;;;22.27;;
23288;SDS011;11813;50.834;4.280;2022-12-05T01:04:01;46.10;;;20.87;;
23288;SDS011;11813;50.834;4.280;2022-12-05T01:06:31;49.20;;;20.37;;
23288;SDS011;11813;50.834;4.280;2022-12-05T01:08:57;46.73;;;21.27;;
23288;SDS011;11813;50.834;4.280;2022-12-05T01:11:24;45.47;;;21.17;;
23288;SDS011;11813;50.834;4.280;2022-12-05T01:13:50;41.23;;;19.73;;
23288;SDS011;11813;50.834;4.280;2022-12-05T01:16:26;41.73;;;19.20;;
23288;SDS011;11813;50.834;4.280;2022-12-05T01:18:55;42.90;;;19.90;;
23288;SDS011;11813;50.834;4.280;2022-12-05T01:21:22;45.23;;;20.33;;
23288;SDS011;11813;50.834;4.280;2022-12-05T01:23:48;39.53;;;19.50;;
23288;SDS011;11813;50.834;4.280;2022-12-05T01:26:15;41.13;;;19.00;;
23288;SDS011;11813;50.834;4.280;2022-12-05T01:28:42;41.00;;;19.90;;
23288;SDS011;11813;50.834;4.280;2022-12-05T01:31:09;41.43;;;19.70;;
23288;SDS011;11813;50.834;4.280;2022-12-05T01:33:56;45.10;;;19.73;;
23288;SDS011;11813;50.834;4.280;2022-12-05T01:36:23;38.57;;;19.40;;
23288;SDS011;11813;50.834;4.280;2022-12-05T01:38:49;41.33;;;20.43;;
23288;SDS011;11813;50.834;4.280;2022-12-05T01:41:17;45.40;;;19.80;;
23288;SDS011;11813;50.834;4.280;2022-12-05T01:44:01;40.40;;;19.67;;
23288;SDS011;11813;50.834;4.280;2022-12-05T01:46:31;43.20;;;18.97;;
23288;SDS011;11813;50.834;4.280;2022-12-05T01:49:00;47.53;;;19.47;;
23288;SDS011;11813;50.834;4.280;2022-12-05T01:51:27;46.47;;;19.87;;
23288;SDS011;11813;50.834;4.280;2022-12-05T01:53:54;37.87;;;18.67;;
23288;SDS011;11813;50.834;4.280;2022-12-05T01:56:20;47.77;;;19.53;;
23288;SDS011;11813;50.834;4.280;2022-12-05T01:58:45;44.63;;;19.67;;
23288;SDS011;11813;50.834;4.280;2022-12-05T02:01:12;49.20;;;20.90;;
23288;SDS011;11813;50.834;4.280;2022-12-05T02:03:41;38.87;;;19.43;;
23288;SDS011;11813;50.834;4.280;2022-12-05T02:06:10;44.77;;;20.50;;
23288;SDS011;11813;50.834;4.280;2022-12-05T02:08:37;50.63;;;20.77;;
23288;SDS011;11813;50.834;4.280;2022-12-05T02:11:05;39.27;;;19.27;;
23288;SDS011;11813;50.834;4.280;2022-12-05T02:16:10;47.13;;;19.10;;
23288;SDS011;11813;50.834;4.280;2022-12-05T02:30:06;40.13;;;21.03;;
23288;SDS011;11813;50.834;4.280;2022-12-05T02:35:36;46.60;;;20.20;;
23288;SDS011;11813;50.834;4.280;2022-12-05T02:38:14;45.20;;;20.60;;
23288;SDS011;11813;50.834;4.280;2022-12-05T02:43:29;47.90;;;22.73;;
23288;SDS011;11813;50.834;4.280;2022-12-05T02:46:07;50.53;;;20.47;;
23288;SDS011;11813;50.834;4.280;2022-12-05T02:48:37;57.30;;;22.57;;
23288;SDS011;11813;50.834;4.280;2022-12-05T02:51:05;50.43;;;22.47;;
23288;SDS011;11813;50.834;4.280;2022-12-05T02:53:33;55.40;;;22.17;;
23288;SDS011;11813;50.834;4.280;2022-12-05T02:56:01;54.60;;;22.97;;
23288;SDS011;11813;50.834;4.280;2022-12-05T02:58:32;51.60;;;22.10;;
23288;SDS011;11813;50.834;4.280;2022-12-05T03:01:01;53.17;;;22.10;;
23288;SDS011;11813;50.834;4.280;2022-12-05T03:03:27;53.37;;;23.07;;
23288;SDS011;11813;50.834;4.280;2022-12-05T03:05:59;57.00;;;22.97;;
23288;SDS011;11813;50.834;4.280;2022-12-05T03:08:39;60.13;;;23.03;;
23288;SDS011;11813;50.834;4.280;2022-12-05T03:11:09;58.67;;;24.10;;
23288;SDS011;11813;50.834;4.280;2022-12-05T03:13:46;48.27;;;21.73;;
23288;SDS011;11813;50.834;4.280;2022-12-05T03:16:19;61.93;;;23.07;;
23288;SDS011;11813;50.834;4.280;2022-12-05T03:18:59;55.47;;;22.87;;
23288;SDS011;11813;50.834;4.280;2022-12-05T03:24:08;55.17;;;22.67;;
23288;SDS011;11813;50.834;4.280;2022-12-05T03:29:28;61.77;;;24.23;;
23288;SDS011;11813;50.834;4.280;2022-12-05T03:37:20;61.70;;;24.67;;
23288;SDS011;11813;50.834;4.280;2022-12-05T03:40:05;48.40;;;22.57;;
23288;SDS011;11813;50.834;4.280;2022-12-05T03:42:37;54.23;;;24.30;;
23288;SDS011;11813;50.834;4.280;2022-12-05T03:45:09;50.03;;;21.77;;
23288;SDS011;11813;50.834;4.280;2022-12-05T03:50:18;57.33;;;23.60;;
23288;SDS011;11813;50.834;4.280;2022-12-05T03:52:45;49.30;;;23.40;;
23288;SDS011;11813;50.834;4.280;2022-12-05T03:55:17;48.67;;;22.80;;
23288;SDS011;11813;50.834;4.280;2022-12-05T03:57:51;55.13;;;23.13;;
23288;SDS011;11813;50.834;4.280;2022-12-05T04:00:21;51.90;;;21.63;;
23288;SDS011;11813;50.834;4.280;2022-12-05T04:05:16;58.80;;;23.20;;
23288;SDS011;11813;50.834;4.280;2022-12-05T04:07:48;65.23;;;23.87;;
23288;SDS011;11813;50.834;4.280;2022-12-05T04:10:21;49.53;;;22.03;;
23288;SDS011;11813;50.834;4.280;2022-12-05T04:12:51;53.90;;;21.90;;
23288;SDS011;11813;50.834;4.280;2022-12-05T04:15:21;47.60;;;20.67;;
23288;SDS011;11813;50.834;4.280;2022-12-05T04:17:57;50.10;;;21.40;;
23288;SDS011;11813;50.834;4.280;2022-12-05T04:23:19;39.80;;;18.97;;
23288;SDS011;11813;50.834;4.280;2022-12-05T04:25:55;38.90;;;18.50;;
23288;SDS011;11813;50.834;4.280;2022-12-05T04:29:01;44.97;;;20.07;;
23288;SDS011;11813;50.834;4.280;2022-12-05T04:31:33;40.90;;;19.97;;
23288;SDS011;11813;50.834;4.280;2022-12-05T04:34:05;49.07;;;20.03;;
23288;SDS011;11813;50.834;4.280;2022-12-05T04:39:13;44.00;;;19.77;;
23288;SDS011;11813;50.834;4.280;2022-12-05T04:44:14;40.57;;;18.43;;
23288;SDS011;11813;50.834;4.280;2022-12-05T04:46:43;39.67;;;18.33;;
23288;SDS011;11813;50.834;4.280;2022-12-05T04:49:11;40.97;;;18.30;;
23288;SDS011;11813;50.834;4.280;2022-12-05T04:51:41;41.33;;;17.67;;
23288;SDS011;11813;50.834;4.280;2022-12-05T04:54:10;36.43;;;17.17;;
23288;SDS011;11813;50.834;4.280;2022-12-05T04:56:46;38.70;;;17.70;;
23288;SDS011;11813;50.834;4.280;2022-12-05T04:59:14;43.70;;;19.83;;
23288;SDS011;11813;50.834;4.280;2022-12-05T05:01:44;45.73;;;19.33;;
23288;SDS011;11813;50.834;4.280;2022-12-05T05:07:15;40.00;;;19.10;;
23288;SDS011;11813;50.834;4.280;2022-12-05T05:09:41;40.43;;;19.83;;
23288;SDS011;11813;50.834;4.280;2022-12-05T05:12:09;41.60;;;19.07;;
23288;SDS011;11813;50.834;4.280;2022-12-05T05:14:35;46.43;;;20.33;;
23288;SDS011;11813;50.834;4.280;2022-12-05T05:17:01;42.37;;;19.50;;
23288;SDS011;11813;50.834;4.280;2022-12-05T05:19:27;45.63;;;21.27;;
23288;SDS011;11813;50.834;4.280;2022-12-05T05:21:53;39.43;;;19.57;;
23288;SDS011;11813;50.834;4.280;2022-12-05T05:24:19;46.43;;;21.83;;
23288;SDS011;11813;50.834;4.280;2022-12-05T05:26:49;42.10;;;19.37;;
23288;SDS011;11813;50.834;4.280;2022-12-05T05:29:15;41.97;;;20.67;;
23288;SDS011;11813;50.834;4.280;2022-12-05T05:31:41;42.50;;;19.97;;
23288;SDS011;11813;50.834;4.280;2022-12-05T05:34:08;43.43;;;20.80;;
23288;SDS011;11813;50.834;4.280;2022-12-05T05:36:34;43.27;;;19.83;;
23288;SDS011;11813;50.834;4.280;2022-12-05T05:39:00;42.83;;;19.33;;
23288;SDS011;11813;50.834;4.280;2022-12-05T05:41:28;43.90;;;20.60;;
23288;SDS011;11813;50.834;4.280;2022-12-05T05:44:00;46.90;;;20.27;;
23288;SDS011;11813;50.834;4.280;2022-12-05T05:46:28;40.33;;;20.00;;
23288;SDS011;11813;50.834;4.280;2022-12-05T05:48:55;46.23;;;21.23;;
23288;SDS011;11813;50.834;4.280;2022-12-05T05:51:22;47.93;;;20.97;;
23288;SDS011;11813;50.834;4.280;2022-12-05T05:53:49;44.60;;;20.60;;
23288;SDS011;11813;50.834;4.280;2022-12-05T05:56:16;52.83;;;21.57;;
23288;SDS011;11813;50.834;4.280;2022-12-05T05:58:43;52.57;;;21.97;;
23288;SDS011;11813;50.834;4.280;2022-12-05T06:01:11;49.43;;;20.93;;
23288;SDS011;11813;50.834;4.280;2022-12-05T06:03:38;47.80;;;20.87;;
23288;SDS011;11813;50.834;4.280;2022-12-05T06:06:05;51.53;;;21.70;;
23288;SDS011;11813;50.834;4.280;2022-12-05T06:08:33;48.23;;;22.07;;
23288;SDS011;11813;50.834;4.280;2022-12-05T06:11:05;46.47;;;21.20;;
23288;SDS011;11813;50.834;4.280;2022-12-05T06:13:32;49.80;;;21.60;;
23288;SDS011;11813;50.834;4.280;2022-12-05T06:15:58;47.73;;;20.67;;
23288;SDS011;11813;50.834;4.280;2022-12-05T06:18:24;52.40;;;21.70;;
23288;SDS011;11813;50.834;4.280;2022-12-05T06:20:53;43.80;;;21.53;;
23288;SDS011;11813;50.834;4.280;2022-12-05T06:23:20;42.73;;;21.43;;
23288;SDS011;11813;50.834;4.280;2022-12-05T06:25:46;51.20;;;20.97;;
23288;SDS011;11813;50.834;4.280;2022-12-05T06:28:13;50.73;;;22.13;;
23288;SDS011;11813;50.834;4.280;2022-12-05T06:30:39;53.43;;;20.80;;
23288;SDS011;11813;50.834;4.280;2022-12-05T06:33:04;46.40;;;20.73;;
23288;SDS011;11813;50.834;4.280;2022-12-05T06:35:30;50.00;;;22.20;;
23288;SDS011;11813;50.834;4.280;2022-12-05T06:37:56;47.07;;;21.57;;
23288;SDS011;11813;50.834;4.280;2022-12-05T06:40:21;44.53;;;21.43;;
23288;SDS011;11813;50.834;4.280;2022-12-05T06:42:47;48.60;;;22.03;;
23288;SDS011;11813;50.834;4.280;2022-12-05T06:45:13;48.63;;;21.20;;
23288;SDS011;11813;50.834;4.280;2022-12-05T06:47:38;50.43;;;20.63;;
23288;SDS011;11813;50.834;4.280;2022-12-05T06:50:04;45.23;;;21.43;;
23288;SDS011;11813;50.834;4.280;2022-12-05T06:52:31;51.07;;;23.00;;
23288;SDS011;11813;50.834;4.280;2022-12-05T06:54:56;47.23;;;22.27;;
23288;SDS011;11813;50.834;4.280;2022-12-05T06:57:23;47.33;;;21.67;;
23288;SDS011;11813;50.834;4.280;2022-12-05T06:59:49;49.60;;;22.40;;
23288;SDS011;11813;50.834;4.280;2022-12-05T07:02:15;47.87;;;22.20;;
23288;SDS011;11813;50.834;4.280;2022-12-05T07:04:40;44.23;;;21.33;;
23288;SDS011;11813;50.834;4.280;2022-12-05T07:07:06;45.00;;;22.53;;
23288;SDS011;11813;50.834;4.280;2022-12-05T07:09:31;46.97;;;22.60;;
23288;SDS011;11813;50.834;4.280;2022-12-05T07:12:10;43.97;;;20.53;;
23288;SDS011;11813;50.834;4.280;2022-12-05T07:14:36;42.67;;;20.00;;
23288;SDS011;11813;50.834;4.280;2022-12-05T07:17:02;48.40;;;22.40;;
23288;SDS011;11813;50.834;4.280;2022-12-05T07:19:27;44.13;;;21.53;;
23288;SDS011;11813;50.834;4.280;2022-12-05T07:21:53;46.40;;;21.47;;
23288;SDS011;11813;50.834;4.280;2022-12-05T07:24:18;49.20;;;21.27;;
23288;SDS011;11813;50.834;4.280;2022-12-05T07:26:44;47.23;;;21.67;;
23288;SDS011;11813;50.834;4.280;2022-12-05T07:29:10;45.07;;;22.57;;
23288;SDS011;11813;50.834;4.280;2022-12-05T07:31:35;46.00;;;21.30;;
23288;SDS011;11813;50.834;4.280;2022-12-05T07:34:01;43.70;;;21.53;;
23288;SDS011;11813;50.834;4.280;2022-12-05T07:36:27;44.57;;;22.07;;
23288;SDS011;11813;50.834;4.280;2022-12-05T07:38:56;44.47;;;21.47;;
23288;SDS011;11813;50.834;4.280;2022-12-05T07:41:23;49.00;;;21.23;;
23288;SDS011;11813;50.834;4.280;2022-12-05T07:43:50;46.03;;;21.13;;
23288;SDS011;11813;50.834;4.280;2022-12-05T07:46:17;47.80;;;22.40;;
23288;SDS011;11813;50.834;4.280;2022-12-05T07:48:43;51.37;;;22.60;;
23288;SDS011;11813;50.834;4.280;2022-12-05T07:51:08;44.30;;;21.20;;
23288;SDS011;11813;50.834;4.280;2022-12-05T07:53:35;49.00;;;21.97;;
23288;SDS011;11813;50.834;4.280;2022-12-05T07:56:02;48.67;;;21.73;;
23288;SDS011;11813;50.834;4.280;2022-12-05T07:58:30;55.00;;;23.17;;
23288;SDS011;11813;50.834;4.280;2022-12-05T08:00:56;47.03;;;21.97;;
23288;SDS011;11813;50.834;4.280;2022-12-05T08:03:29;49.30;;;23.30;;
23288;SDS011;11813;50.834;4.280;2022-12-05T08:05:55;48.10;;;23.27;;
23288;SDS011;11813;50.834;4.280;2022-12-05T08:08:25;48.33;;;21.87;;
23288;SDS011;11813;50.834;4.280;2022-12-05T08:10:50;45.37;;;22.30;;
23288;SDS011;11813;50.834;4.280;2022-12-05T08:13:16;46.30;;;21.50;;
23288;SDS011;11813;50.834;4.280;2022-12-05T08:15:41;53.57;;;21.17;;
23288;SDS011;11813;50.834;4.280;2022-12-05T08:18:07;44.10;;;20.67;;
23288;SDS011;11813;50.834;4.280;2022-12-05T08:20:32;42.77;;;20.13;;
23288;SDS011;11813;50.834;4.280;2022-12-05T08:22:58;42.60;;;20.37;;
23288;SDS011;11813;50.834;4.280;2022-12-05T08:25:24;50.40;;;20.93;;
23288;SDS011;11813;50.834;4.280;2022-12-05T08:27:49;40.43;;;19.83;;
23288;SDS011;11813;50.834;4.280;2022-12-05T08:30:15;48.03;;;21.00;;
23288;SDS011;11813;50.834;4.280;2022-12-05T08:32:41;43.73;;;21.30;;
23288;SDS011;11813;50.834;4.280;2022-12-05T08:35:06;45.63;;;21.10;;
23288;SDS011;11813;50.834;4.280;2022-12-05T08:37:33;45.03;;;20.33;;
23288;SDS011;11813;50.834;4.280;2022-12-05T08:39:59;51.77;;;20.67;;
23288;SDS011;11813;50.834;4.280;2022-12-05T08:42:24;44.03;;;19.87;;
23288;SDS011;11813;50.834;4.280;2022-12-05T08:44:50;43.83;;;19.07;;
23288;SDS011;11813;50.834;4.280;2022-12-05T08:47:15;44.73;;;19.87;;
23288;SDS011;11813;50.834;4.280;2022-12-05T08:49:41;41.70;;;19.53;;
23288;SDS011;11813;50.834;4.280;2022-12-05T08:52:07;37.07;;;19.47;;
23288;SDS011;11813;50.834;4.280;2022-12-05T08:54:32;39.07;;;18.70;;
23288;SDS011;11813;50.834;4.280;2022-12-05T08:56:58;37.43;;;18.13;;
23288;SDS011;11813;50.834;4.280;2022-12-05T08:59:23;37.13;;;18.87;;
23288;SDS011;11813;50.834;4.280;2022-12-05T09:01:49;36.80;;;17.13;;
23288;SDS011;11813;50.834;4.280;2022-12-05T09:04:15;35.07;;;18.03;;
23288;SDS011;11813;50.834;4.280;2022-12-05T09:06:41;38.07;;;17.97;;
23288;SDS011;11813;50.834;4.280;2022-12-05T09:09:07;43.43;;;17.97;;
23288;SDS011;11813;50.834;4.280;2022-12-05T09:11:36;38.23;;;17.10;;
23288;SDS011;11813;50.834;4.280;2022-12-05T09:14:05;34.13;;;17.80;;
23288;SDS011;11813;50.834;4.280;2022-12-05T09:16:32;34.77;;;18.57;;
23288;SDS011;11813;50.834;4.280;2022-12-05T09:18:59;31.17;;;17.20;;
23288;SDS011;11813;50.834;4.280;2022-12-05T09:21:26;40.80;;;18.93;;
23288;SDS011;11813;50.834;4.280;2022-12-05T09:23:54;36.33;;;18.20;;
23288;SDS011;11813;50.834;4.280;2022-12-05T09:26:22;37.37;;;18.37;;
23288;SDS011;11813;50.834;4.280;2022-12-05T09:28:49;37.73;;;19.50;;
23288;SDS011;11813;50.834;4.280;2022-12-05T09:31:16;34.07;;;17.40;;
23288;SDS011;11813;50.834;4.280;2022-12-05T09:33:43;32.50;;;17.03;;
23288;SDS011;11813;50.834;4.280;2022-12-05T09:38:39;34.20;;;16.80;;
23288;SDS011;11813;50.834;4.280;2022-12-05T09:41:25;32.73;;;17.27;;
23288;SDS011;11813;50.834;4.280;2022-12-05T09:44:38;29.23;;;15.90;;
23288;SDS011;11813;50.834;4.280;2022-12-05T09:52:40;28.10;;;14.77;;
23288;SDS011;11813;50.834;4.280;2022-12-05T09:55:19;27.60;;;14.50;;
23288;SDS011;11813;50.834;4.280;2022-12-05T09:57:51;27.97;;;13.30;;
23288;SDS011;11813;50.834;4.280;2022-12-05T10:00:21;28.43;;;14.67;;
23288;SDS011;11813;50.834;4.280;2022-12-05T10:02:53;31.97;;;15.30;;
23288;SDS011;11813;50.834;4.280;2022-12-05T10:05:25;30.20;;;14.30;;
23288;SDS011;11813;50.834;4.280;2022-12-05T10:11:33;26.77;;;13.73;;
23288;SDS011;11813;50.834;4.280;2022-12-05T10:14:22;28.23;;;14.83;;
23288;SDS011;11813;50.834;4.280;2022-12-05T10:16:47;26.47;;;13.77;;
23288;SDS011;11813;50.834;4.280;2022-12-05T10:19:21;26.40;;;14.37;;
23288;SDS011;11813;50.834;4.280;2022-12-05T10:24:58;24.10;;;13.53;;
23288;SDS011;11813;50.834;4.280;2022-12-05T10:27:39;29.03;;;14.27;;
23288;SDS011;11813;50.834;4.280;2022-12-05T10:30:14;25.87;;;14.70;;
23288;SDS011;11813;50.834;4.280;2022-12-05T10:35:18;26.37;;;13.27;;
23288;SDS011;11813;50.834;4.280;2022-12-05T10:37:56;23.20;;;13.87;;
23288;SDS011;11813;50.834;4.280;2022-12-05T10:40:25;22.50;;;12.53;;
23288;SDS011;11813;50.834;4.280;2022-12-05T10:42:57;24.93;;;13.40;;
23288;SDS011;11813;50.834;4.280;2022-12-05T10:45:23;22.13;;;13.27;;
23288;SDS011;11813;50.834;4.280;2022-12-05T10:47:52;28.33;;;13.57;;
23288;SDS011;11813;50.834;4.280;2022-12-05T10:52:52;25.53;;;14.20;;
23288;SDS011;11813;50.834;4.280;2022-12-05T10:55:19;27.63;;;14.93;;
23288;SDS011;11813;50.834;4.280;2022-12-05T10:57:49;24.73;;;13.30;;
23288;SDS011;11813;50.834;4.280;2022-12-05T11:00:18;25.07;;;13.50;;
23288;SDS011;11813;50.834;4.280;2022-12-05T11:02:46;22.13;;;13.67;;
23288;SDS011;11813;50.834;4.280;2022-12-05T11:05:12;28.47;;;13.67;;
23288;SDS011;11813;50.834;4.280;2022-12-05T11:13:03;18.40;;;10.80;;
23288;SDS011;11813;50.834;4.280;2022-12-05T11:15:44;20.33;;;11.83;;
23288;SDS011;11813;50.834;4.280;2022-12-05T11:18:18;22.10;;;12.43;;
23288;SDS011;11813;50.834;4.280;2022-12-05T11:20:43;21.23;;;12.70;;
23288;SDS011;11813;50.834;4.280;2022-12-05T11:23:43;20.80;;;11.43;;
23288;SDS011;11813;50.834;4.280;2022-12-05T11:26:01;19.73;;;11.50;;
23288;SDS011;11813;50.834;4.280;2022-12-05T11:28:29;20.70;;;12.17;;
23288;SDS011;11813;50.834;4.280;2022-12-05T11:31:15;21.90;;;13.40;;
23288;SDS011;11813;50.834;4.280;2022-12-05T11:33:57;24.27;;;13.50;;
23288;SDS011;11813;50.834;4.280;2022-12-05T11:36:28;23.70;;;13.43;;
23288;SDS011;11813;50.834;4.280;2022-12-05T11:39:07;21.70;;;13.37;;
23288;SDS011;11813;50.834;4.280;2022-12-05T11:55:42;18.60;;;11.87;;
23288;SDS011;11813;50.834;4.280;2022-12-05T12:04:43;20.97;;;12.57;;
23288;SDS011;11813;50.834;4.280;2022-12-05T12:10:00;22.20;;;14.17;;
23288;SDS011;11813;50.834;4.280;2022-12-05T12:12:51;24.10;;;13.77;;
23288;SDS011;11813;50.834;4.280;2022-12-05T12:18:37;25.07;;;14.30;;
23288;SDS011;11813;50.834;4.280;2022-12-05T12:24:02;20.90;;;12.30;;
23288;SDS011;11813;50.834;4.280;2022-12-05T12:32:10;21.60;;;13.20;;
23288;SDS011;11813;50.834;4.280;2022-12-05T12:37:42;23.33;;;14.50;;
23288;SDS011;11813;50.834;4.280;2022-12-05T12:43:09;22.37;;;14.10;;
23288;SDS011;11813;50.834;4.280;2022-12-05T12:48:49;21.80;;;13.53;;
23288;SDS011;11813;50.834;4.280;2022-12-05T12:51:53;21.13;;;13.80;;
23288;SDS011;11813;50.834;4.280;2022-12-05T12:54:28;21.27;;;13.43;;
23288;SDS011;11813;50.834;4.280;2022-12-05T12:57:16;20.93;;;12.73;;
23288;SDS011;11813;50.834;4.280;2022-12-05T13:00:19;22.80;;;14.13;;
23288;SDS011;11813;50.834;4.280;2022-12-05T13:05:43;23.53;;;14.70;;
23288;SDS011;11813;50.834;4.280;2022-12-05T13:08:19;21.63;;;13.37;;
23288;SDS011;11813;50.834;4.280;2022-12-05T13:10:52;23.87;;;14.00;;
23288;SDS011;11813;50.834;4.280;2022-12-05T13:13:20;21.27;;;13.30;;
23288;SDS011;11813;50.834;4.280;2022-12-05T13:15:51;23.23;;;14.27;;
23288;SDS011;11813;50.834;4.280;2022-12-05T13:18:21;22.20;;;14.03;;
23288;SDS011;11813;50.834;4.280;2022-12-05T13:20:49;23.03;;;14.50;;
23288;SDS011;11813;50.834;4.280;2022-12-05T13:23:21;24.03;;;14.83;;
23288;SDS011;11813;50.834;4.280;2022-12-05T13:25:49;26.63;;;16.50;;
23288;SDS011;11813;50.834;4.280;2022-12-05T13:28:22;27.13;;;16.20;;
23288;SDS011;11813;50.834;4.280;2022-12-05T13:30:58;22.60;;;14.33;;
23288;SDS011;11813;50.834;4.280;2022-12-05T13:33:30;23.30;;;14.40;;
23288;SDS011;11813;50.834;4.280;2022-12-05T13:36:16;22.07;;;14.47;;
23288;SDS011;11813;50.834;4.280;2022-12-05T13:39:05;24.47;;;14.40;;
23288;SDS011;11813;50.834;4.280;2022-12-05T13:41:56;21.27;;;14.10;;
23288;SDS011;11813;50.834;4.280;2022-12-05T13:50:06;21.57;;;13.83;;
23288;SDS011;11813;50.834;4.280;2022-12-05T13:52:47;24.00;;;14.40;;
23288;SDS011;11813;50.834;4.280;2022-12-05T13:55:36;22.00;;;13.97;;
23288;SDS011;11813;50.834;4.280;2022-12-05T14:00:44;25.47;;;14.53;;
23288;SDS011;11813;50.834;4.280;2022-12-05T14:03:17;22.80;;;14.07;;
23288;SDS011;11813;50.834;4.280;2022-12-05T14:17:29;24.20;;;15.00;;
23288;SDS011;11813;50.834;4.280;2022-12-05T14:34:04;23.63;;;14.63;;
23288;SDS011;11813;50.834;4.280;2022-12-05T14:36:52;21.70;;;14.40;;
23288;SDS011;11813;50.834;4.280;2022-12-05T14:42:21;27.27;;;16.77;;
23288;SDS011;11813;50.834;4.280;2022-12-05T14:44:51;32.67;;;18.97;;
23288;SDS011;11813;50.834;4.280;2022-12-05T14:47:20;29.00;;;17.37;;
23288;SDS011;11813;50.834;4.280;2022-12-05T14:49:57;28.33;;;16.67;;
23288;SDS011;11813;50.834;4.280;2022-12-05T14:52:43;41.33;;;20.13;;
23288;SDS011;11813;50.834;4.280;2022-12-05T14:55:29;35.47;;;19.30;;
23288;SDS011;11813;50.834;4.280;2022-12-05T14:57:55;32.83;;;18.43;;
23288;SDS011;11813;50.834;4.280;2022-12-05T15:00:21;27.83;;;16.07;;
23288;SDS011;11813;50.834;4.280;2022-12-05T15:02:47;30.87;;;17.20;;
23288;SDS011;11813;50.834;4.280;2022-12-05T15:05:30;28.60;;;17.17;;
23288;SDS011;11813;50.834;4.280;2022-12-05T15:07:58;31.73;;;16.83;;
23288;SDS011;11813;50.834;4.280;2022-12-05T15:10:28;32.73;;;17.73;;
23288;SDS011;11813;50.834;4.280;2022-12-05T15:13:08;35.47;;;18.83;;
23288;SDS011;11813;50.834;4.280;2022-12-05T15:15:59;40.77;;;22.70;;
23288;SDS011;11813;50.834;4.280;2022-12-05T15:18:33;41.97;;;23.33;;
23288;SDS011;11813;50.834;4.280;2022-12-05T15:21:20;42.27;;;23.17;;
23288;SDS011;11813;50.834;4.280;2022-12-05T15:24:02;42.50;;;24.60;;
23288;SDS011;11813;50.834;4.280;2022-12-05T15:26:39;40.80;;;23.00;;
23288;SDS011;11813;50.834;4.280;2022-12-05T15:29:16;39.47;;;21.60;;
23288;SDS011;11813;50.834;4.280;2022-12-05T15:34:17;39.17;;;21.93;;
23288;SDS011;11813;50.834;4.280;2022-12-05T15:39:55;31.20;;;18.53;;
23288;SDS011;11813;50.834;4.280;2022-12-05T15:42:33;30.37;;;17.60;;
23288;SDS011;11813;50.834;4.280;2022-12-05T15:45:14;31.87;;;17.63;;
23288;SDS011;11813;50.834;4.280;2022-12-05T15:52:57;33.97;;;18.10;;
23288;SDS011;11813;50.834;4.280;2022-12-05T15:58:20;31.57;;;18.73;;
23288;SDS011;11813;50.834;4.280;2022-12-05T16:00:50;36.07;;;18.93;;
23288;SDS011;11813;50.834;4.280;2022-12-05T16:03:22;36.80;;;19.03;;
23288;SDS011;11813;50.834;4.280;2022-12-05T16:05:58;32.80;;;19.23;;
23288;SDS011;11813;50.834;4.280;2022-12-05T16:08:28;36.53;;;19.93;;
23288;SDS011;11813;50.834;4.280;2022-12-05T16:11:08;34.30;;;19.30;;
23288;SDS011;11813;50.834;4.280;2022-12-05T16:13:34;35.70;;;20.03;;
23288;SDS011;11813;50.834;4.280;2022-12-05T16:16:05;38.70;;;20.23;;
23288;SDS011;11813;50.834;4.280;2022-12-05T16:18:31;41.23;;;21.23;;
23288;SDS011;11813;50.834;4.280;2022-12-05T16:20:57;37.97;;;21.83;;
23288;SDS011;11813;50.834;4.280;2022-12-05T16:26:09;35.40;;;19.80;;
23288;SDS011;11813;50.834;4.280;2022-12-05T16:28:37;40.57;;;20.47;;
23288;SDS011;11813;50.834;4.280;2022-12-05T16:31:03;40.33;;;20.97;;
23288;SDS011;11813;50.834;4.280;2022-12-05T16:33:30;44.67;;;22.53;;
23288;SDS011;11813;50.834;4.280;2022-12-05T16:36:09;43.80;;;22.33;;
23288;SDS011;11813;50.834;4.280;2022-12-05T16:38:36;43.47;;;22.07;;
23288;SDS011;11813;50.834;4.280;2022-12-05T16:41:05;38.37;;;21.33;;
23288;SDS011;11813;50.834;4.280;2022-12-05T16:46:07;40.50;;;21.80;;
23288;SDS011;11813;50.834;4.280;2022-12-05T16:51:57;39.77;;;20.43;;
23288;SDS011;11813;50.834;4.280;2022-12-05T16:54:23;33.97;;;20.17;;
23288;SDS011;11813;50.834;4.280;2022-12-05T16:56:49;39.40;;;21.23;;
23288;SDS011;11813;50.834;4.280;2022-12-05T16:59:20;41.13;;;22.90;;
23288;SDS011;11813;50.834;4.280;2022-12-05T17:01:50;43.33;;;23.40;;
23288;SDS011;11813;50.834;4.280;2022-12-05T17:04:16;44.90;;;23.80;;
23288;SDS011;11813;50.834;4.280;2022-12-05T17:06:42;41.10;;;23.33;;
23288;SDS011;11813;50.834;4.280;2022-12-05T17:09:07;42.67;;;23.43;;
23288;SDS011;11813;50.834;4.280;2022-12-05T17:11:33;45.03;;;21.47;;
23288;SDS011;11813;50.834;4.280;2022-12-05T17:14:01;42.33;;;22.70;;
23288;SDS011;11813;50.834;4.280;2022-12-05T17:16:27;43.80;;;23.87;;
23288;SDS011;11813;50.834;4.280;2022-12-05T17:18:53;41.83;;;22.73;;
23288;SDS011;11813;50.834;4.280;2022-12-05T17:21:20;40.23;;;22.83;;
23288;SDS011;11813;50.834;4.280;2022-12-05T17:23:48;42.17;;;22.87;;
23288;SDS011;11813;50.834;4.280;2022-12-05T17:26:16;40.73;;;22.23;;
23288;SDS011;11813;50.834;4.280;2022-12-05T17:28:43;43.93;;;22.93;;
23288;SDS011;11813;50.834;4.280;2022-12-05T17:31:10;47.40;;;23.23;;
23288;SDS011;11813;50.834;4.280;2022-12-05T17:33:37;44.30;;;24.47;;
23288;SDS011;11813;50.834;4.280;2022-12-05T17:36:03;46.33;;;23.30;;